sensor_id;sensor_type;location;lat;lon;timestamp;temperature;humidity
56436;DHT22;42335;44.872;20.658;2022-11-04T00:01:52;282.00;2278.40
56436;DHT22;42335;44.872;20.658;2022-11-04T00:04:19;282.00;2278.40
56436;DHT22;42335;44.872;20.658;2022-11-04T00:06:45;282.10;2278.40
56436;DHT22;42335;44.872;20.658;2022-11-04T00:09:24;282.10;2278.40
56436;DHT22;42335;44.872;20.658;2022-11-04T00:11:50;282.10;2278.40
56436;DHT22;42335;44.872;20.658;2022-11-04T00:14:35;282.10;2278.40
56436;DHT22;42335;44.872;20.658;2022-11-04T00:17:02;282.10;2278.40
56436;DHT22;42335;44.872;20.658;2022-11-04T00:19:49;282.10;2278.40
56436;DHT22;42335;44.872;20.658;2022-11-04T00:22:35;282.00;2278.40
56436;DHT22;42335;44.872;20.658;2022-11-04T00:25:19;282.00;2278.40
56436;DHT22;42335;44.872;20.658;2022-11-04T00:28:08;282.00;2278.40
56436;DHT22;42335;44.872;20.658;2022-11-04T00:30:57;282.00;2278.40
56436;DHT22;42335;44.872;20.658;2022-11-04T00:33:23;282.10;2278.40
56436;DHT22;42335;44.872;20.658;2022-11-04T00:35:54;282.10;2278.40
56436;DHT22;42335;44.872;20.658;2022-11-04T00:38:21;282.10;2278.40
56436;DHT22;42335;44.872;20.658;2022-11-04T00:40:47;282.10;2278.40
56436;DHT22;42335;44.872;20.658;2022-11-04T00:43:13;282.20;2278.40
56436;DHT22;42335;44.872;20.658;2022-11-04T00:45:42;282.10;2278.40
56436;DHT22;42335;44.872;20.658;2022-11-04T00:48:08;282.20;2278.40
56436;DHT22;42335;44.872;20.658;2022-11-04T00:50:34;282.20;2278.40
56436;DHT22;42335;44.872;20.658;2022-11-04T00:53:01;282.20;2278.40
56436;DHT22;42335;44.872;20.658;2022-11-04T00:55:27;282.20;2278.40
56436;DHT22;42335;44.872;20.658;2022-11-04T00:57:53;282.20;2278.40
56436;DHT22;42335;44.872;20.658;2022-11-04T01:00:19;282.30;2278.40
56436;DHT22;42335;44.872;20.658;2022-11-04T01:02:46;282.20;2278.40
56436;DHT22;42335;44.872;20.658;2022-11-04T01:05:11;282.30;2278.40
56436;DHT22;42335;44.872;20.658;2022-11-04T01:07:37;282.30;2278.40
56436;DHT22;42335;44.872;20.658;2022-11-04T01:10:04;282.30;2278.40
56436;DHT22;42335;44.872;20.658;2022-11-04T01:12:30;282.30;2278.40
56436;DHT22;42335;44.872;20.658;2022-11-04T01:14:56;282.30;2278.40
56436;DHT22;42335;44.872;20.658;2022-11-04T01:17:22;282.20;2278.40
56436;DHT22;42335;44.872;20.658;2022-11-04T01:19:47;282.30;2278.40
56436;DHT22;42335;44.872;20.658;2022-11-04T01:22:13;282.30;2278.40
56436;DHT22;42335;44.872;20.658;2022-11-04T01:24:39;282.30;2278.40
56436;DHT22;42335;44.872;20.658;2022-11-04T01:27:04;282.30;2278.40
56436;DHT22;42335;44.872;20.658;2022-11-04T01:29:30;282.30;2278.40
56436;DHT22;42335;44.872;20.658;2022-11-04T01:31:56;282.30;2278.40
56436;DHT22;42335;44.872;20.658;2022-11-04T01:34:21;282.30;2278.40
56436;DHT22;42335;44.872;20.658;2022-11-04T01:36:47;282.30;2278.40
56436;DHT22;42335;44.872;20.658;2022-11-04T01:39:13;282.30;2278.40
56436;DHT22;42335;44.872;20.658;2022-11-04T01:41:39;282.30;2278.40
56436;DHT22;42335;44.872;20.658;2022-11-04T01:49:52;282.20;2278.40
56436;DHT22;42335;44.872;20.658;2022-11-04T01:52:34;282.20;2278.40
56436;DHT22;42335;44.872;20.658;2022-11-04T01:55:05;282.20;2278.40
56436;DHT22;42335;44.872;20.658;2022-11-04T01:57:35;282.20;2278.40
56436;DHT22;42335;44.872;20.658;2022-11-04T02:00:06;282.20;2278.40
56436;DHT22;42335;44.872;20.658;2022-11-04T02:02:35;282.20;2278.40
56436;DHT22;42335;44.872;20.658;2022-11-04T02:05:03;282.20;2278.40
56436;DHT22;42335;44.872;20.658;2022-11-04T02:07:29;282.10;2278.40
56436;DHT22;42335;44.872;20.658;2022-11-04T02:09:55;282.20;2278.40
56436;DHT22;42335;44.872;20.658;2022-11-04T02:12:21;282.20;2278.40
56436;DHT22;42335;44.872;20.658;2022-11-04T02:15:06;282.10;2278.40
56436;DHT22;42335;44.872;20.658;2022-11-04T02:18:02;282.10;2278.40
56436;DHT22;42335;44.872;20.658;2022-11-04T02:21:12;282.00;2278.40
56436;DHT22;42335;44.872;20.658;2022-11-04T02:29:18;281.90;2278.40
56436;DHT22;42335;44.872;20.658;2022-11-04T02:34:43;281.80;2278.40
56436;DHT22;42335;44.872;20.658;2022-11-04T02:37:39;281.80;2278.40
56436;DHT22;42335;44.872;20.658;2022-11-04T02:45:45;281.70;2278.40
56436;DHT22;42335;44.872;20.658;2022-11-04T02:48:41;281.60;2278.40
56436;DHT22;42335;44.872;20.658;2022-11-04T02:51:26;281.60;2278.40
56436;DHT22;42335;44.872;20.658;2022-11-04T02:56:27;256.90;2252.80
56436;DHT22;42335;44.872;20.658;2022-11-04T02:58:58;256.90;2252.80
56436;DHT22;42335;44.872;20.658;2022-11-04T03:01:30;256.90;2252.80
56436;DHT22;42335;44.872;20.658;2022-11-04T03:04:01;256.90;2252.80
56436;DHT22;42335;44.872;20.658;2022-11-04T03:06:30;256.90;2252.80
56436;DHT22;42335;44.872;20.658;2022-11-04T03:08:59;256.90;2252.80
56436;DHT22;42335;44.872;20.658;2022-11-04T03:11:26;256.90;2252.80
56436;DHT22;42335;44.872;20.658;2022-11-04T03:16:37;256.90;2252.80
56436;DHT22;42335;44.872;20.658;2022-11-04T03:21:33;256.90;2252.80
56436;DHT22;42335;44.872;20.658;2022-11-04T03:24:00;256.90;2252.80
56436;DHT22;42335;44.872;20.658;2022-11-04T03:26:31;256.90;2252.80
56436;DHT22;42335;44.872;20.658;2022-11-04T03:34:31;256.80;2252.80
56436;DHT22;42335;44.872;20.658;2022-11-04T03:36:57;256.90;2252.80
56436;DHT22;42335;44.872;20.658;2022-11-04T03:39:23;256.90;2252.80
56436;DHT22;42335;44.872;20.658;2022-11-04T03:41:56;256.90;2252.80
56436;DHT22;42335;44.872;20.658;2022-11-04T03:44:23;256.90;2252.80
56436;DHT22;42335;44.872;20.658;2022-11-04T03:46:51;256.90;2252.80
56436;DHT22;42335;44.872;20.658;2022-11-04T03:49:19;256.90;2252.80
56436;DHT22;42335;44.872;20.658;2022-11-04T03:51:45;256.80;2252.80
56436;DHT22;42335;44.872;20.658;2022-11-04T03:54:12;256.90;2252.80
56436;DHT22;42335;44.872;20.658;2022-11-04T04:05:11;256.80;2252.80
56436;DHT22;42335;44.872;20.658;2022-11-04T04:07:43;256.80;2252.80
56436;DHT22;42335;44.872;20.658;2022-11-04T04:11:11;256.80;2252.80
56436;DHT22;42335;44.872;20.658;2022-11-04T04:16:11;256.90;2252.80
56436;DHT22;42335;44.872;20.658;2022-11-04T04:18:39;256.90;2252.80
56436;DHT22;42335;44.872;20.658;2022-11-04T04:21:10;256.90;2252.80
56436;DHT22;42335;44.872;20.658;2022-11-04T04:23:37;256.90;2252.80
56436;DHT22;42335;44.872;20.658;2022-11-04T04:26:24;256.90;2252.80
56436;DHT22;42335;44.872;20.658;2022-11-04T04:29:09;256.90;2252.80
56436;DHT22;42335;44.872;20.658;2022-11-04T04:31:37;281.60;2278.40
56436;DHT22;42335;44.872;20.658;2022-11-04T04:34:19;281.60;2278.40
56436;DHT22;42335;44.872;20.658;2022-11-04T04:37:14;281.60;2278.40
56436;DHT22;42335;44.872;20.658;2022-11-04T04:39:47;281.60;2278.40
56436;DHT22;42335;44.872;20.658;2022-11-04T04:42:34;281.60;2278.40
56436;DHT22;42335;44.872;20.658;2022-11-04T04:45:22;281.60;2278.40
56436;DHT22;42335;44.872;20.658;2022-11-04T04:47:50;281.60;2278.40
56436;DHT22;42335;44.872;20.658;2022-11-04T04:50:18;256.90;2252.80
56436;DHT22;42335;44.872;20.658;2022-11-04T04:52:50;256.90;2252.80
56436;DHT22;42335;44.872;20.658;2022-11-04T04:55:16;256.90;2252.80
56436;DHT22;42335;44.872;20.658;2022-11-04T04:57:42;256.90;2252.80
56436;DHT22;42335;44.872;20.658;2022-11-04T05:00:12;256.90;2252.80
56436;DHT22;42335;44.872;20.658;2022-11-04T05:02:38;256.90;2252.80
56436;DHT22;42335;44.872;20.658;2022-11-04T05:05:04;256.70;2252.80
56436;DHT22;42335;44.872;20.658;2022-11-04T05:07:30;256.90;2252.80
56436;DHT22;42335;44.872;20.658;2022-11-04T05:09:56;256.90;2252.80
56436;DHT22;42335;44.872;20.658;2022-11-04T05:12:21;256.90;2252.80
56436;DHT22;42335;44.872;20.658;2022-11-04T05:14:47;256.90;2252.80
56436;DHT22;42335;44.872;20.658;2022-11-04T05:17:13;256.90;2252.80
56436;DHT22;42335;44.872;20.658;2022-11-04T05:19:39;256.90;2252.80
56436;DHT22;42335;44.872;20.658;2022-11-04T05:22:05;281.60;2278.40
56436;DHT22;42335;44.872;20.658;2022-11-04T05:24:31;281.60;2278.40
56436;DHT22;42335;44.872;20.658;2022-11-04T05:26:56;281.60;2278.40
56436;DHT22;42335;44.872;20.658;2022-11-04T05:29:22;281.60;2278.40
56436;DHT22;42335;44.872;20.658;2022-11-04T05:31:48;281.60;2278.40
56436;DHT22;42335;44.872;20.658;2022-11-04T05:34:14;281.70;2278.40
56436;DHT22;42335;44.872;20.658;2022-11-04T05:36:40;281.70;2278.40
56436;DHT22;42335;44.872;20.658;2022-11-04T05:39:06;281.70;2278.40
56436;DHT22;42335;44.872;20.658;2022-11-04T05:41:33;281.70;2278.40
56436;DHT22;42335;44.872;20.658;2022-11-04T05:44:00;281.80;2278.40
56436;DHT22;42335;44.872;20.658;2022-11-04T05:46:27;281.90;2278.40
56436;DHT22;42335;44.872;20.658;2022-11-04T05:48:58;281.90;2278.40
56436;DHT22;42335;44.872;20.658;2022-11-04T05:51:26;282.00;2278.40
56436;DHT22;42335;44.872;20.658;2022-11-04T05:53:52;282.10;2278.40
56436;DHT22;42335;44.872;20.658;2022-11-04T05:56:18;282.10;2278.40
56436;DHT22;42335;44.872;20.658;2022-11-04T05:58:44;282.20;2278.40
56436;DHT22;42335;44.872;20.658;2022-11-04T06:01:23;282.20;2278.40
56436;DHT22;42335;44.872;20.658;2022-11-04T06:03:51;282.30;2278.40
56436;DHT22;42335;44.872;20.658;2022-11-04T06:06:16;282.40;2278.40
56436;DHT22;42335;44.872;20.658;2022-11-04T06:08:42;282.40;2278.40
56436;DHT22;42335;44.872;20.658;2022-11-04T06:11:08;282.50;2278.40
56436;DHT22;42335;44.872;20.658;2022-11-04T06:13:33;282.50;2278.40
56436;DHT22;42335;44.872;20.658;2022-11-04T06:15:59;307.20;2304.00
56436;DHT22;42335;44.872;20.658;2022-11-04T06:18:25;307.30;2304.00
56436;DHT22;42335;44.872;20.658;2022-11-04T06:21:06;307.40;2304.00
56436;DHT22;42335;44.872;20.658;2022-11-04T06:23:32;307.60;2304.00
56436;DHT22;42335;44.872;20.658;2022-11-04T06:25:58;307.70;2304.00
56436;DHT22;42335;44.872;20.658;2022-11-04T06:28:24;307.80;2304.00
56436;DHT22;42335;44.872;20.658;2022-11-04T06:30:49;308.00;2304.00
56436;DHT22;42335;44.872;20.658;2022-11-04T06:33:15;308.00;2304.00
56436;DHT22;42335;44.872;20.658;2022-11-04T06:35:40;332.80;2329.60
56436;DHT22;42335;44.872;20.658;2022-11-04T06:38:06;333.00;2329.60
56436;DHT22;42335;44.872;20.658;2022-11-04T06:40:32;333.20;2329.60
56436;DHT22;42335;44.872;20.658;2022-11-04T06:42:57;333.70;2329.60
56436;DHT22;42335;44.872;20.658;2022-11-04T06:45:23;384.00;2329.60
56436;DHT22;42335;44.872;20.658;2022-11-04T06:47:49;384.30;2329.60
56436;DHT22;42335;44.872;20.658;2022-11-04T06:50:14;384.50;2329.60
56436;DHT22;42335;44.872;20.658;2022-11-04T06:52:40;384.40;2329.60
56436;DHT22;42335;44.872;20.658;2022-11-04T06:55:06;384.70;2329.60
56436;DHT22;42335;44.872;20.658;2022-11-04T06:57:32;409.90;2355.20
56436;DHT22;42335;44.872;20.658;2022-11-04T06:59:58;435.40;2355.20
56436;DHT22;42335;44.872;20.658;2022-11-04T07:02:28;435.80;2355.20
56436;DHT22;42335;44.872;20.658;2022-11-04T07:07:20;461.60;2380.80
56436;DHT22;42335;44.872;20.658;2022-11-04T07:09:46;461.40;2380.80
56436;DHT22;42335;44.872;20.658;2022-11-04T07:12:11;461.30;2380.80
56436;DHT22;42335;44.872;20.658;2022-11-04T07:14:37;460.90;2380.80
56436;DHT22;42335;44.872;20.658;2022-11-04T07:17:03;436.00;2355.20
56436;DHT22;42335;44.872;20.658;2022-11-04T07:19:29;436.10;2355.20
56436;DHT22;42335;44.872;20.658;2022-11-04T07:21:54;486.70;2380.80
56436;DHT22;42335;44.872;20.658;2022-11-04T07:24:20;486.70;2380.80
56436;DHT22;42335;44.872;20.658;2022-11-04T07:26:46;486.50;2380.80
56436;DHT22;42335;44.872;20.658;2022-11-04T07:29:11;461.70;2380.80
56436;DHT22;42335;44.872;20.658;2022-11-04T07:31:37;461.60;2380.80
56436;DHT22;42335;44.872;20.658;2022-11-04T07:34:03;461.50;2380.80
56436;DHT22;42335;44.872;20.658;2022-11-04T07:36:29;461.20;2380.80
56436;DHT22;42335;44.872;20.658;2022-11-04T07:38:54;461.20;2380.80
56436;DHT22;42335;44.872;20.658;2022-11-04T07:41:20;461.20;2380.80
56436;DHT22;42335;44.872;20.658;2022-11-04T07:43:50;461.20;2380.80
56436;DHT22;42335;44.872;20.658;2022-11-04T07:46:17;461.50;2380.80
56436;DHT22;42335;44.872;20.658;2022-11-04T07:48:43;486.60;2380.80
56436;DHT22;42335;44.872;20.658;2022-11-04T07:51:12;487.10;2380.80
56436;DHT22;42335;44.872;20.658;2022-11-04T07:53:38;487.30;2380.80
56436;DHT22;42335;44.872;20.658;2022-11-04T07:56:05;487.20;2355.20
56436;DHT22;42335;44.872;20.658;2022-11-04T07:58:31;486.90;2380.80
56436;DHT22;42335;44.872;20.658;2022-11-04T08:01:02;486.40;2380.80
56436;DHT22;42335;44.872;20.658;2022-11-04T08:03:28;461.40;2380.80
56436;DHT22;42335;44.872;20.658;2022-11-04T08:05:55;461.10;2380.80
56436;DHT22;42335;44.872;20.658;2022-11-04T08:08:21;436.10;2355.20
56436;DHT22;42335;44.872;20.658;2022-11-04T08:10:55;435.80;2355.20
56436;DHT22;42335;44.872;20.658;2022-11-04T08:13:21;435.60;2355.20
56436;DHT22;42335;44.872;20.658;2022-11-04T08:15:47;435.40;2355.20
56436;DHT22;42335;44.872;20.658;2022-11-04T08:18:13;435.20;2355.20
56436;DHT22;42335;44.872;20.658;2022-11-04T08:20:39;435.20;2355.20
56436;DHT22;42335;44.872;20.658;2022-11-04T08:23:05;410.50;2355.20
56436;DHT22;42335;44.872;20.658;2022-11-04T08:25:30;410.50;2355.20
56436;DHT22;42335;44.872;20.658;2022-11-04T08:27:56;435.20;2355.20
56436;DHT22;42335;44.872;20.658;2022-11-04T08:30:21;435.20;2355.20
56436;DHT22;42335;44.872;20.658;2022-11-04T08:32:47;435.20;2355.20
56436;DHT22;42335;44.872;20.658;2022-11-04T08:35:13;435.30;2355.20
56436;DHT22;42335;44.872;20.658;2022-11-04T08:37:38;435.20;2355.20
56436;DHT22;42335;44.872;20.658;2022-11-04T08:40:05;435.20;2355.20
56436;DHT22;42335;44.872;20.658;2022-11-04T08:42:30;435.30;2355.20
56436;DHT22;42335;44.872;20.658;2022-11-04T08:44:56;435.30;2355.20
56436;DHT22;42335;44.872;20.658;2022-11-04T08:47:22;435.50;2355.20
56436;DHT22;42335;44.872;20.658;2022-11-04T08:49:48;435.70;2355.20
56436;DHT22;42335;44.872;20.658;2022-11-04T08:52:15;461.60;2380.80
56436;DHT22;42335;44.872;20.658;2022-11-04T08:54:40;487.30;2380.80
56436;DHT22;42335;44.872;20.658;2022-11-04T08:57:06;563.80;2124.80
56436;DHT22;42335;44.872;20.658;2022-11-04T08:59:33;665.90;1638.40
56436;DHT22;42335;44.872;20.658;2022-11-04T09:01:58;666.30;1536.00
56436;DHT22;42335;44.872;20.658;2022-11-04T09:09:17;768.60;1177.60
56436;DHT22;42335;44.872;20.658;2022-11-04T09:11:44;717.70;1228.80
56436;DHT22;42335;44.872;20.658;2022-11-04T09:14:10;742.50;1228.80
56436;DHT22;42335;44.872;20.658;2022-11-04T09:16:37;743.30;1177.60
56436;DHT22;42335;44.872;20.658;2022-11-04T09:19:03;742.90;1177.60
56436;DHT22;42335;44.872;20.658;2022-11-04T09:21:29;742.60;1228.80
56436;DHT22;42335;44.872;20.658;2022-11-04T09:23:55;794.00;1100.80
56436;DHT22;42335;44.872;20.658;2022-11-04T09:26:22;768.90;1075.20
56436;DHT22;42335;44.872;20.658;2022-11-04T09:28:55;743.10;1152.00
56436;DHT22;42335;44.872;20.658;2022-11-04T09:31:22;768.60;1100.80
56436;DHT22;42335;44.872;20.658;2022-11-04T09:33:48;793.90;1075.20
56436;DHT22;42335;44.872;20.658;2022-11-04T09:36:15;794.50;1049.60
56436;DHT22;42335;44.872;20.658;2022-11-04T09:38:41;870.40;972.80
56436;DHT22;42335;44.872;20.658;2022-11-04T09:51:22;870.70;947.20
56436;DHT22;42335;44.872;20.658;2022-11-04T09:53:50;845.70;921.60
56436;DHT22;42335;44.872;20.658;2022-11-04T09:56:22;896.80;870.40
56436;DHT22;42335;44.872;20.658;2022-11-04T09:58:50;948.00;793.60
56436;DHT22;42335;44.872;20.658;2022-11-04T10:07:03;1049.60;716.80
56436;DHT22;42335;44.872;20.658;2022-11-04T10:15:03;1024.10;716.80
56436;DHT22;42335;44.872;20.658;2022-11-04T10:17:53;998.70;742.40
56436;DHT22;42335;44.872;20.658;2022-11-04T10:26:46;998.50;742.40
56436;DHT22;42335;44.872;20.658;2022-11-04T10:32:02;999.30;716.80
56436;DHT22;42335;44.872;20.658;2022-11-04T10:34:36;998.80;716.80
56436;DHT22;42335;44.872;20.658;2022-11-04T10:37:11;1024.00;691.20
56436;DHT22;42335;44.872;20.658;2022-11-04T10:39:43;1049.70;665.60
56436;DHT22;42335;44.872;20.658;2022-11-04T10:42:15;1075.70;614.40
56436;DHT22;42335;44.872;20.658;2022-11-04T10:44:41;1100.90;614.40
56436;DHT22;42335;44.872;20.658;2022-11-04T10:47:13;1076.10;614.40
56436;DHT22;42335;44.872;20.658;2022-11-04T10:52:10;1127.00;588.80
56436;DHT22;42335;44.872;20.658;2022-11-04T10:54:43;1152.70;563.20
56436;DHT22;42335;44.872;20.658;2022-11-04T10:57:11;1152.00;614.40
56436;DHT22;42335;44.872;20.658;2022-11-04T11:05:29;1024.40;665.60
56436;DHT22;42335;44.872;20.658;2022-11-04T11:07:56;999.10;691.20
56436;DHT22;42335;44.872;20.658;2022-11-04T11:10:30;948.10;716.80
56436;DHT22;42335;44.872;20.658;2022-11-04T11:12:58;896.10;793.60
56436;DHT22;42335;44.872;20.658;2022-11-04T11:15:34;820.00;870.40
56436;DHT22;42335;44.872;20.658;2022-11-04T11:27:51;691.30;1100.80
56436;DHT22;42335;44.872;20.658;2022-11-04T11:30:23;665.90;1152.00
56436;DHT22;42335;44.872;20.658;2022-11-04T11:32:52;640.80;1152.00
56436;DHT22;42335;44.872;20.658;2022-11-04T11:35:22;640.30;1203.20
56436;DHT22;42335;44.872;20.658;2022-11-04T11:37:50;640.00;1228.80
56436;DHT22;42335;44.872;20.658;2022-11-04T11:40:30;614.90;1331.20
56436;DHT22;42335;44.872;20.658;2022-11-04T11:42:59;614.40;1331.20
56436;DHT22;42335;44.872;20.658;2022-11-04T11:45:26;589.70;1356.80
56436;DHT22;42335;44.872;20.658;2022-11-04T11:47:53;589.30;1356.80
56436;DHT22;42335;44.872;20.658;2022-11-04T11:50:24;589.30;1356.80
56436;DHT22;42335;44.872;20.658;2022-11-04T11:53:05;589.10;1356.80
56436;DHT22;42335;44.872;20.658;2022-11-04T11:55:35;589.10;1382.40
56436;DHT22;42335;44.872;20.658;2022-11-04T11:58:31;588.80;1408.00
56436;DHT22;42335;44.872;20.658;2022-11-04T12:01:01;588.80;1459.20
56436;DHT22;42335;44.872;20.658;2022-11-04T12:03:43;588.80;1408.00
56436;DHT22;42335;44.872;20.658;2022-11-04T12:09:07;588.90;1382.40
56436;DHT22;42335;44.872;20.658;2022-11-04T12:34:01;589.00;1408.00
56436;DHT22;42335;44.872;20.658;2022-11-04T12:41:37;589.10;1382.40
56436;DHT22;42335;44.872;20.658;2022-11-04T12:52:49;563.90;1408.00
56436;DHT22;42335;44.872;20.658;2022-11-04T13:07:00;563.30;1459.20
56436;DHT22;42335;44.872;20.658;2022-11-04T13:09:56;563.20;1459.20
56436;DHT22;42335;44.872;20.658;2022-11-04T13:12:30;538.50;1459.20
56436;DHT22;42335;44.872;20.658;2022-11-04T13:17:33;538.40;1459.20
56436;DHT22;42335;44.872;20.658;2022-11-04T13:20:28;538.40;1459.20
56436;DHT22;42335;44.872;20.658;2022-11-04T13:23:00;538.30;1459.20
56436;DHT22;42335;44.872;20.658;2022-11-04T13:27:56;538.10;1484.80
56436;DHT22;42335;44.872;20.658;2022-11-04T13:33:02;538.00;1484.80
56436;DHT22;42335;44.872;20.658;2022-11-04T13:38:42;538.00;1510.40
56436;DHT22;42335;44.872;20.658;2022-11-04T13:43:54;537.80;1536.00
56436;DHT22;42335;44.872;20.658;2022-11-04T13:46:32;537.80;1536.00
56436;DHT22;42335;44.872;20.658;2022-11-04T13:51:45;537.70;1536.00
56436;DHT22;42335;44.872;20.658;2022-11-04T13:54:27;537.60;1536.00
56436;DHT22;42335;44.872;20.658;2022-11-04T13:57:18;537.60;1561.60
56436;DHT22;42335;44.872;20.658;2022-11-04T14:21:19;512.30;1638.40
56436;DHT22;42335;44.872;20.658;2022-11-04T14:23:52;512.30;1638.40
56436;DHT22;42335;44.872;20.658;2022-11-04T14:26:42;512.20;1664.00
56436;DHT22;42335;44.872;20.658;2022-11-04T14:29:18;512.20;1664.00
56436;DHT22;42335;44.872;20.658;2022-11-04T14:31:56;512.10;1664.00
56436;DHT22;42335;44.872;20.658;2022-11-04T14:34:32;512.10;1664.00
56436;DHT22;42335;44.872;20.658;2022-11-04T14:37:03;512.00;1664.00
56436;DHT22;42335;44.872;20.658;2022-11-04T14:39:38;512.00;1689.60
56436;DHT22;42335;44.872;20.658;2022-11-04T14:42:04;487.30;1689.60
56436;DHT22;42335;44.872;20.658;2022-11-04T14:44:37;487.30;1689.60
56436;DHT22;42335;44.872;20.658;2022-11-04T14:47:28;487.30;1715.20
56436;DHT22;42335;44.872;20.658;2022-11-04T14:52:34;487.10;1715.20
56436;DHT22;42335;44.872;20.658;2022-11-04T14:57:55;487.10;1740.80
56436;DHT22;42335;44.872;20.658;2022-11-04T15:05:36;487.10;1792.00
56436;DHT22;42335;44.872;20.658;2022-11-04T15:08:32;487.00;1766.40
56436;DHT22;42335;44.872;20.658;2022-11-04T15:16:12;487.30;1792.00
56436;DHT22;42335;44.872;20.658;2022-11-04T15:18:39;486.90;1792.00
56436;DHT22;42335;44.872;20.658;2022-11-04T15:21:06;486.90;1792.00
56436;DHT22;42335;44.872;20.658;2022-11-04T15:23:43;486.80;1792.00
56436;DHT22;42335;44.872;20.658;2022-11-04T15:26:30;486.80;1792.00
56436;DHT22;42335;44.872;20.658;2022-11-04T15:28:59;486.70;1817.60
56436;DHT22;42335;44.872;20.658;2022-11-04T15:31:30;486.70;1817.60
56436;DHT22;42335;44.872;20.658;2022-11-04T15:33:58;486.70;1817.60
56436;DHT22;42335;44.872;20.658;2022-11-04T15:36:34;486.60;1843.20
56436;DHT22;42335;44.872;20.658;2022-11-04T15:39:20;486.60;1843.20
56436;DHT22;42335;44.872;20.658;2022-11-04T15:41:47;486.50;1868.80
56436;DHT22;42335;44.872;20.658;2022-11-04T15:44:35;486.50;1868.80
56436;DHT22;42335;44.872;20.658;2022-11-04T15:49:49;461.70;1894.40
56436;DHT22;42335;44.872;20.658;2022-11-04T15:52:26;461.70;1920.00
56436;DHT22;42335;44.872;20.658;2022-11-04T15:54:56;461.70;1920.00
56436;DHT22;42335;44.872;20.658;2022-11-04T15:57:36;461.60;1894.40
56436;DHT22;42335;44.872;20.658;2022-11-04T16:00:08;461.60;1894.40
56436;DHT22;42335;44.872;20.658;2022-11-04T16:02:46;461.50;1920.00
56436;DHT22;42335;44.872;20.658;2022-11-04T16:07:49;461.40;1920.00
56436;DHT22;42335;44.872;20.658;2022-11-04T16:10:37;461.30;1920.00
56436;DHT22;42335;44.872;20.658;2022-11-04T16:16:02;461.20;1920.00
56436;DHT22;42335;44.872;20.658;2022-11-04T16:18:38;461.20;1920.00
56436;DHT22;42335;44.872;20.658;2022-11-04T16:24:03;461.20;1920.00
56436;DHT22;42335;44.872;20.658;2022-11-04T16:26:37;461.10;1945.60
56436;DHT22;42335;44.872;20.658;2022-11-04T16:29:07;461.10;1971.20
56436;DHT22;42335;44.872;20.658;2022-11-04T16:31:35;461.10;1971.20
56436;DHT22;42335;44.872;20.658;2022-11-04T16:34:02;461.00;1971.20
56436;DHT22;42335;44.872;20.658;2022-11-04T16:36:28;461.10;2227.20
56436;DHT22;42335;44.872;20.658;2022-11-04T16:38:58;461.00;1996.80
56436;DHT22;42335;44.872;20.658;2022-11-04T16:41:28;460.90;1996.80
56436;DHT22;42335;44.872;20.658;2022-11-04T16:43:56;460.90;1996.80
56436;DHT22;42335;44.872;20.658;2022-11-04T16:46:22;460.90;1996.80
56436;DHT22;42335;44.872;20.658;2022-11-04T16:48:48;460.90;1996.80
56436;DHT22;42335;44.872;20.658;2022-11-04T16:51:18;460.80;2022.40
56436;DHT22;42335;44.872;20.658;2022-11-04T16:53:51;460.80;2022.40
56436;DHT22;42335;44.872;20.658;2022-11-04T16:56:22;436.10;2022.40
56436;DHT22;42335;44.872;20.658;2022-11-04T16:58:49;436.10;2048.00
56436;DHT22;42335;44.872;20.658;2022-11-04T17:01:14;436.10;2048.00
56436;DHT22;42335;44.872;20.658;2022-11-04T17:03:41;436.10;2073.60
56436;DHT22;42335;44.872;20.658;2022-11-04T17:06:12;436.10;2073.60
56436;DHT22;42335;44.872;20.658;2022-11-04T17:08:38;436.10;2099.20
56436;DHT22;42335;44.872;20.658;2022-11-04T17:11:05;435.60;2124.80
56436;DHT22;42335;44.872;20.658;2022-11-04T17:13:30;435.90;2201.60
56436;DHT22;42335;44.872;20.658;2022-11-04T17:15:56;436.00;2252.80
56436;DHT22;42335;44.872;20.658;2022-11-04T17:18:22;435.90;2304.00
56436;DHT22;42335;44.872;20.658;2022-11-04T17:20:50;435.90;2329.60
56436;DHT22;42335;44.872;20.658;2022-11-04T17:23:16;435.80;2355.20
56436;DHT22;42335;44.872;20.658;2022-11-04T17:25:43;435.80;2355.20
56436;DHT22;42335;44.872;20.658;2022-11-04T17:28:09;435.70;2355.20
56436;DHT22;42335;44.872;20.658;2022-11-04T17:30:35;435.60;2355.20
56436;DHT22;42335;44.872;20.658;2022-11-04T17:33:01;435.50;2355.20
56436;DHT22;42335;44.872;20.658;2022-11-04T17:35:35;435.40;2355.20
56436;DHT22;42335;44.872;20.658;2022-11-04T17:38:01;435.30;2355.20
56436;DHT22;42335;44.872;20.658;2022-11-04T17:40:27;435.20;2355.20
56436;DHT22;42335;44.872;20.658;2022-11-04T17:42:53;435.20;2355.20
56436;DHT22;42335;44.872;20.658;2022-11-04T17:45:38;435.20;2355.20
56436;DHT22;42335;44.872;20.658;2022-11-04T17:48:04;410.50;2355.20
56436;DHT22;42335;44.872;20.658;2022-11-04T17:50:31;410.50;2355.20
56436;DHT22;42335;44.872;20.658;2022-11-04T17:52:57;410.50;2355.20
56436;DHT22;42335;44.872;20.658;2022-11-04T17:55:23;410.40;2355.20
56436;DHT22;42335;44.872;20.658;2022-11-04T17:57:49;410.30;2355.20
56436;DHT22;42335;44.872;20.658;2022-11-04T18:00:15;410.30;2355.20
56436;DHT22;42335;44.872;20.658;2022-11-04T18:02:41;410.30;2355.20
56436;DHT22;42335;44.872;20.658;2022-11-04T18:05:08;410.30;2355.20
56436;DHT22;42335;44.872;20.658;2022-11-04T18:07:34;410.20;2355.20
56436;DHT22;42335;44.872;20.658;2022-11-04T18:10:00;410.20;2355.20
56436;DHT22;42335;44.872;20.658;2022-11-04T18:12:27;410.20;2355.20
56436;DHT22;42335;44.872;20.658;2022-11-04T18:15:09;410.20;2355.20
56436;DHT22;42335;44.872;20.658;2022-11-04T18:17:37;410.10;2355.20
56436;DHT22;42335;44.872;20.658;2022-11-04T18:20:04;410.10;2355.20
56436;DHT22;42335;44.872;20.658;2022-11-04T18:22:30;410.10;2355.20
56436;DHT22;42335;44.872;20.658;2022-11-04T18:24:56;410.00;2355.20
56436;DHT22;42335;44.872;20.658;2022-11-04T18:27:21;410.00;2355.20
56436;DHT22;42335;44.872;20.658;2022-11-04T18:29:47;410.00;2355.20